sensor_id;sensor_type;location;lat;lon;timestamp;temperature;humidity
70928;SHT31;58587;53.034;18.576;2023-01-28T00:01:33;-1.08;83.39
70928;SHT31;58587;53.034;18.576;2023-01-28T00:03:58;-1.09;83.92
70928;SHT31;58587;53.034;18.576;2023-01-28T00:06:24;-1.06;84.14
70928;SHT31;58587;53.034;18.576;2023-01-28T00:08:49;-1.09;83.63
70928;SHT31;58587;53.034;18.576;2023-01-28T00:11:14;-1.09;83.98
70928;SHT31;58587;53.034;18.576;2023-01-28T00:13:40;-1.11;84.05
70928;SHT31;58587;53.034;18.576;2023-01-28T00:16:07;-1.12;84.29
70928;SHT31;58587;53.034;18.576;2023-01-28T00:18:34;-1.09;84.05
70928;SHT31;58587;53.034;18.576;2023-01-28T00:21:02;-1.11;84.42
70928;SHT31;58587;53.034;18.576;2023-01-28T00:23:29;-1.09;84.40
70928;SHT31;58587;53.034;18.576;2023-01-28T00:25:59;-1.12;84.32
70928;SHT31;58587;53.034;18.576;2023-01-28T00:28:25;-1.12;85.06
70928;SHT31;58587;53.034;18.576;2023-01-28T00:30:50;-1.13;85.10
70928;SHT31;58587;53.034;18.576;2023-01-28T00:33:15;-1.15;84.94
70928;SHT31;58587;53.034;18.576;2023-01-28T00:35:41;-1.13;85.18
70928;SHT31;58587;53.034;18.576;2023-01-28T00:38:07;-1.09;85.42
70928;SHT31;58587;53.034;18.576;2023-01-28T00:40:33;-1.11;85.23
70928;SHT31;58587;53.034;18.576;2023-01-28T00:42:58;-1.15;85.53
70928;SHT31;58587;53.034;18.576;2023-01-28T00:45:24;-1.16;85.49
70928;SHT31;58587;53.034;18.576;2023-01-28T00:47:49;-1.09;85.54
70928;SHT31;58587;53.034;18.576;2023-01-28T00:50:14;-1.18;84.98
70928;SHT31;58587;53.034;18.576;2023-01-28T00:52:40;-1.18;85.35
70928;SHT31;58587;53.034;18.576;2023-01-28T00:55:06;-1.15;85.32
70928;SHT31;58587;53.034;18.576;2023-01-28T00:57:31;-1.15;85.61
70928;SHT31;58587;53.034;18.576;2023-01-28T00:59:58;-1.13;85.49
70928;SHT31;58587;53.034;18.576;2023-01-28T01:02:24;-1.15;85.47
70928;SHT31;58587;53.034;18.576;2023-01-28T01:04:50;-1.13;85.53
70928;SHT31;58587;53.034;18.576;2023-01-28T01:07:26;-1.12;85.74
70928;SHT31;58587;53.034;18.576;2023-01-28T01:10:16;-1.13;85.62
70928;SHT31;58587;53.034;18.576;2023-01-28T01:12:44;-1.11;85.63
70928;SHT31;58587;53.034;18.576;2023-01-28T01:15:10;-1.08;85.77
70928;SHT31;58587;53.034;18.576;2023-01-28T01:17:37;-1.11;85.59
70928;SHT31;58587;53.034;18.576;2023-01-28T01:20:04;-1.06;85.69
70928;SHT31;58587;53.034;18.576;2023-01-28T01:22:35;-1.09;85.35
70928;SHT31;58587;53.034;18.576;2023-01-28T01:25:01;-1.08;85.57
70928;SHT31;58587;53.034;18.576;2023-01-28T01:27:26;-1.12;85.13
70928;SHT31;58587;53.034;18.576;2023-01-28T01:29:51;-1.12;85.56
70928;SHT31;58587;53.034;18.576;2023-01-28T01:32:17;-1.06;85.33
70928;SHT31;58587;53.034;18.576;2023-01-28T01:34:42;-1.04;85.60
70928;SHT31;58587;53.034;18.576;2023-01-28T01:37:08;-1.08;85.05
70928;SHT31;58587;53.034;18.576;2023-01-28T01:39:34;-1.06;85.76
70928;SHT31;58587;53.034;18.576;2023-01-28T01:42:00;-1.09;85.18
70928;SHT31;58587;53.034;18.576;2023-01-28T01:47:13;-1.05;85.11
70928;SHT31;58587;53.034;18.576;2023-01-28T01:49:39;-1.05;84.98
70928;SHT31;58587;53.034;18.576;2023-01-28T01:52:12;-1.04;85.30
70928;SHT31;58587;53.034;18.576;2023-01-28T01:54:40;-1.06;84.96
70928;SHT31;58587;53.034;18.576;2023-01-28T01:57:09;-1.08;85.05
70928;SHT31;58587;53.034;18.576;2023-01-28T01:59:36;-1.08;84.60
70928;SHT31;58587;53.034;18.576;2023-01-28T02:02:04;-1.06;84.70
70928;SHT31;58587;53.034;18.576;2023-01-28T02:04:34;-1.04;84.65
70928;SHT31;58587;53.034;18.576;2023-01-28T02:07:03;-1.05;84.57
70928;SHT31;58587;53.034;18.576;2023-01-28T02:09:32;-1.04;85.21
70928;SHT31;58587;53.034;18.576;2023-01-28T02:12:11;-1.08;84.59
70928;SHT31;58587;53.034;18.576;2023-01-28T02:14:41;-1.06;84.55
70928;SHT31;58587;53.034;18.576;2023-01-28T02:17:08;-1.01;84.81
70928;SHT31;58587;53.034;18.576;2023-01-28T02:19:39;-1.06;84.35
70928;SHT31;58587;53.034;18.576;2023-01-28T02:24:55;-1.08;84.68
70928;SHT31;58587;53.034;18.576;2023-01-28T02:27:33;-1.06;84.25
70928;SHT31;58587;53.034;18.576;2023-01-28T02:30:14;-1.04;84.64
70928;SHT31;58587;53.034;18.576;2023-01-28T02:32:52;-1.04;84.34
70928;SHT31;58587;53.034;18.576;2023-01-28T02:35:26;-1.05;84.71
70928;SHT31;58587;53.034;18.576;2023-01-28T02:37:58;-1.04;84.32
70928;SHT31;58587;53.034;18.576;2023-01-28T02:40:28;-1.06;84.12
70928;SHT31;58587;53.034;18.576;2023-01-28T02:42:55;-1.05;84.18
70928;SHT31;58587;53.034;18.576;2023-01-28T02:45:26;-1.05;84.08
70928;SHT31;58587;53.034;18.576;2023-01-28T02:48:13;-1.06;84.17
70928;SHT31;58587;53.034;18.576;2023-01-28T11:29:33;0.42;75.16
70928;SHT31;58587;53.034;18.576;2023-01-28T11:32:02;0.44;75.76
70928;SHT31;58587;53.034;18.576;2023-01-28T11:34:32;0.41;75.14
70928;SHT31;58587;53.034;18.576;2023-01-28T11:37:12;0.46;75.75
70928;SHT31;58587;53.034;18.576;2023-01-28T11:39:38;0.49;75.75
70928;SHT31;58587;53.034;18.576;2023-01-28T11:42:20;0.45;74.54
70928;SHT31;58587;53.034;18.576;2023-01-28T11:44:47;0.42;75.21
70928;SHT31;58587;53.034;18.576;2023-01-28T11:47:25;0.48;74.71
70928;SHT31;58587;53.034;18.576;2023-01-28T11:50:32;0.52;75.23
70928;SHT31;58587;53.034;18.576;2023-01-28T11:55:41;0.48;75.14
70928;SHT31;58587;53.034;18.576;2023-01-28T11:58:21;0.49;75.11
70928;SHT31;58587;53.034;18.576;2023-01-28T12:15:18;0.46;74.13
70928;SHT31;58587;53.034;18.576;2023-01-28T12:18:12;0.49;72.79
70928;SHT31;58587;53.034;18.576;2023-01-28T12:21:05;0.46;73.45
70928;SHT31;58587;53.034;18.576;2023-01-28T12:24:14;0.44;73.10
70928;SHT31;58587;53.034;18.576;2023-01-28T12:26:55;0.37;73.06
70928;SHT31;58587;53.034;18.576;2023-01-28T12:30:05;0.44;75.01
70928;SHT31;58587;53.034;18.576;2023-01-28T12:32:54;0.51;74.31
70928;SHT31;58587;53.034;18.576;2023-01-28T12:41:15;0.53;74.53
70928;SHT31;58587;53.034;18.576;2023-01-28T12:43:59;0.53;74.11
70928;SHT31;58587;53.034;18.576;2023-01-28T12:49:05;0.53;73.40
70928;SHT31;58587;53.034;18.576;2023-01-28T12:51:50;0.45;72.64
70928;SHT31;58587;53.034;18.576;2023-01-28T12:54:39;0.42;72.35
70928;SHT31;58587;53.034;18.576;2023-01-28T12:57:13;0.44;72.38
70928;SHT31;58587;53.034;18.576;2023-01-28T12:59:49;0.52;73.69
70928;SHT31;58587;53.034;18.576;2023-01-28T13:02:26;0.53;73.96
70928;SHT31;58587;53.034;18.576;2023-01-28T13:05:15;0.55;73.83
70928;SHT31;58587;53.034;18.576;2023-01-28T13:07:51;0.53;72.56
70928;SHT31;58587;53.034;18.576;2023-01-28T13:10:27;0.51;72.88
70928;SHT31;58587;53.034;18.576;2023-01-28T13:12:55;0.44;72.42
70928;SHT31;58587;53.034;18.576;2023-01-28T13:15:21;0.42;71.78
70928;SHT31;58587;53.034;18.576;2023-01-28T13:17:57;0.44;73.52
70928;SHT31;58587;53.034;18.576;2023-01-28T13:20:35;0.40;72.14
70928;SHT31;58587;53.034;18.576;2023-01-28T13:23:21;0.40;72.10
70928;SHT31;58587;53.034;18.576;2023-01-28T13:25:49;0.38;71.92
70928;SHT31;58587;53.034;18.576;2023-01-28T13:28:31;0.42;72.53
70928;SHT31;58587;53.034;18.576;2023-01-28T13:31:08;0.32;71.23
70928;SHT31;58587;53.034;18.576;2023-01-28T13:33:38;0.32;71.69
70928;SHT31;58587;53.034;18.576;2023-01-28T13:36:29;0.21;70.91
70928;SHT31;58587;53.034;18.576;2023-01-28T13:41:41;0.21;71.45
70928;SHT31;58587;53.034;18.576;2023-01-28T13:46:56;0.21;70.44
70928;SHT31;58587;53.034;18.576;2023-01-28T13:49:44;0.17;70.88
70928;SHT31;58587;53.034;18.576;2023-01-28T13:54:39;0.18;71.40
70928;SHT31;58587;53.034;18.576;2023-01-28T13:57:31;0.15;71.04
70928;SHT31;58587;53.034;18.576;2023-01-28T14:08:23;0.00;70.46
70928;SHT31;58587;53.034;18.576;2023-01-28T14:11:35;-0.02;71.57
70928;SHT31;58587;53.034;18.576;2023-01-28T14:17:41;0.00;71.54
70928;SHT31;58587;53.034;18.576;2023-01-28T14:20:20;0.01;71.30
70928;SHT31;58587;53.034;18.576;2023-01-28T14:22:47;-0.05;70.43
70928;SHT31;58587;53.034;18.576;2023-01-28T14:25:28;-0.12;70.18
70928;SHT31;58587;53.034;18.576;2023-01-28T14:27:58;-0.16;70.12
70928;SHT31;58587;53.034;18.576;2023-01-28T14:30:38;-0.19;70.13
70928;SHT31;58587;53.034;18.576;2023-01-28T14:33:09;-0.17;70.84
70928;SHT31;58587;53.034;18.576;2023-01-28T14:35:37;-0.24;69.92
70928;SHT31;58587;53.034;18.576;2023-01-28T14:38:08;-0.20;70.69
70928;SHT31;58587;53.034;18.576;2023-01-28T14:40:38;-0.23;71.96
70928;SHT31;58587;53.034;18.576;2023-01-28T14:43:06;-0.22;71.01
70928;SHT31;58587;53.034;18.576;2023-01-28T14:46:11;-0.23;70.43
70928;SHT31;58587;53.034;18.576;2023-01-28T14:48:54;-0.24;70.72
70928;SHT31;58587;53.034;18.576;2023-01-28T14:51:49;-0.26;71.00
70928;SHT31;58587;53.034;18.576;2023-01-28T14:54:38;-0.29;70.62
70928;SHT31;58587;53.034;18.576;2023-01-28T14:57:15;-0.31;70.56
70928;SHT31;58587;53.034;18.576;2023-01-28T14:59:51;-0.33;71.57
70928;SHT31;58587;53.034;18.576;2023-01-28T15:02:22;-0.33;70.69
70928;SHT31;58587;53.034;18.576;2023-01-28T15:04:49;-0.31;71.18
70928;SHT31;58587;53.034;18.576;2023-01-28T15:07:24;-0.38;70.07
70928;SHT31;58587;53.034;18.576;2023-01-28T15:12:29;-0.38;70.54
70928;SHT31;58587;53.034;18.576;2023-01-28T15:14:56;-0.40;70.82
70928;SHT31;58587;53.034;18.576;2023-01-28T15:17:25;-0.43;70.71
70928;SHT31;58587;53.034;18.576;2023-01-28T15:19:53;-0.38;71.49
70928;SHT31;58587;53.034;18.576;2023-01-28T15:22:23;-0.40;72.20
70928;SHT31;58587;53.034;18.576;2023-01-28T15:24:50;-0.43;70.86
70928;SHT31;58587;53.034;18.576;2023-01-28T15:27:17;-0.40;71.74
70928;SHT31;58587;53.034;18.576;2023-01-28T15:29:54;-0.43;71.04
70928;SHT31;58587;53.034;18.576;2023-01-28T15:32:31;-0.45;70.91
70928;SHT31;58587;53.034;18.576;2023-01-28T15:35:00;-0.51;71.28
70928;SHT31;58587;53.034;18.576;2023-01-28T15:37:25;-0.47;71.69
70928;SHT31;58587;53.034;18.576;2023-01-28T15:40:02;-0.50;71.78
70928;SHT31;58587;53.034;18.576;2023-01-28T15:42:30;-0.53;71.74
70928;SHT31;58587;53.034;18.576;2023-01-28T15:44:56;-0.50;72.20
70928;SHT31;58587;53.034;18.576;2023-01-28T15:47:32;-0.47;73.25
70928;SHT31;58587;53.034;18.576;2023-01-28T15:50:02;-0.50;71.93
70928;SHT31;58587;53.034;18.576;2023-01-28T15:52:32;-0.50;72.60
70928;SHT31;58587;53.034;18.576;2023-01-28T15:54:58;-0.50;72.23
70928;SHT31;58587;53.034;18.576;2023-01-28T15:57:31;-0.51;73.53
70928;SHT31;58587;53.034;18.576;2023-01-28T16:00:13;-0.54;72.21
70928;SHT31;58587;53.034;18.576;2023-01-28T16:05:35;-0.58;72.33
70928;SHT31;58587;53.034;18.576;2023-01-28T16:13:58;-0.61;71.62
70928;SHT31;58587;53.034;18.576;2023-01-28T16:18:52;-0.60;72.59
70928;SHT31;58587;53.034;18.576;2023-01-28T16:21:25;-0.57;73.36
70928;SHT31;58587;53.034;18.576;2023-01-28T16:23:58;-0.61;71.97
70928;SHT31;58587;53.034;18.576;2023-01-28T16:26:26;-0.63;71.52
70928;SHT31;58587;53.034;18.576;2023-01-28T16:28:52;-0.63;72.25
70928;SHT31;58587;53.034;18.576;2023-01-28T16:31:18;-0.68;71.84
70928;SHT31;58587;53.034;18.576;2023-01-28T16:33:43;-0.67;73.90
70928;SHT31;58587;53.034;18.576;2023-01-28T16:36:11;-0.65;72.98
70928;SHT31;58587;53.034;18.576;2023-01-28T16:38:37;-0.63;73.12
70928;SHT31;58587;53.034;18.576;2023-01-28T16:41:02;-0.63;71.95
70928;SHT31;58587;53.034;18.576;2023-01-28T16:43:28;-0.65;72.47
70928;SHT31;58587;53.034;18.576;2023-01-28T16:45:53;-0.67;71.13
70928;SHT31;58587;53.034;18.576;2023-01-28T16:48:18;-0.68;71.82
70928;SHT31;58587;53.034;18.576;2023-01-28T16:50:44;-0.64;72.29
70928;SHT31;58587;53.034;18.576;2023-01-28T16:53:20;-0.65;73.07
70928;SHT31;58587;53.034;18.576;2023-01-28T16:55:49;-0.65;72.46
70928;SHT31;58587;53.034;18.576;2023-01-28T16:58:18;-0.63;72.01
70928;SHT31;58587;53.034;18.576;2023-01-28T17:00:44;-0.63;73.44
70928;SHT31;58587;53.034;18.576;2023-01-28T17:03:09;-0.61;72.88
70928;SHT31;58587;53.034;18.576;2023-01-28T17:05:36;-0.63;71.84
70928;SHT31;58587;53.034;18.576;2023-01-28T17:08:01;-0.65;72.46
70928;SHT31;58587;53.034;18.576;2023-01-28T17:10:27;-0.70;72.80
70928;SHT31;58587;53.034;18.576;2023-01-28T17:12:52;-0.71;72.95
70928;SHT31;58587;53.034;18.576;2023-01-28T17:15:18;-0.67;73.37
70928;SHT31;58587;53.034;18.576;2023-01-28T17:17:46;-0.70;73.66
70928;SHT31;58587;53.034;18.576;2023-01-28T17:20:12;-0.71;72.64
70928;SHT31;58587;53.034;18.576;2023-01-28T17:22:37;-0.77;72.38
70928;SHT31;58587;53.034;18.576;2023-01-28T17:25:03;-0.75;73.12
70928;SHT31;58587;53.034;18.576;2023-01-28T17:27:28;-0.78;72.72
70928;SHT31;58587;53.034;18.576;2023-01-28T17:29:53;-0.78;72.86
70928;SHT31;58587;53.034;18.576;2023-01-28T17:32:19;-0.83;72.57
70928;SHT31;58587;53.034;18.576;2023-01-28T17:34:46;-0.81;72.72
70928;SHT31;58587;53.034;18.576;2023-01-28T17:37:11;-0.81;73.20
70928;SHT31;58587;53.034;18.576;2023-01-28T17:39:37;-0.78;72.77
70928;SHT31;58587;53.034;18.576;2023-01-28T17:42:02;-0.77;73.69
70928;SHT31;58587;53.034;18.576;2023-01-28T17:44:27;-0.81;72.84
70928;SHT31;58587;53.034;18.576;2023-01-28T17:46:53;-0.75;73.12
70928;SHT31;58587;53.034;18.576;2023-01-28T17:49:18;-0.78;73.24
70928;SHT31;58587;53.034;18.576;2023-01-28T17:51:43;-0.81;73.39
70928;SHT31;58587;53.034;18.576;2023-01-28T17:54:09;-0.80;74.01
70928;SHT31;58587;53.034;18.576;2023-01-28T17:56:36;-0.81;73.24
70928;SHT31;58587;53.034;18.576;2023-01-28T17:59:02;-0.77;73.54
70928;SHT31;58587;53.034;18.576;2023-01-28T18:01:31;-0.77;73.41
70928;SHT31;58587;53.034;18.576;2023-01-28T18:03:58;-0.77;73.86
70928;SHT31;58587;53.034;18.576;2023-01-28T18:06:24;-0.77;73.47
70928;SHT31;58587;53.034;18.576;2023-01-28T18:08:49;-0.80;73.61
70928;SHT31;58587;53.034;18.576;2023-01-28T18:11:18;-0.77;73.66
70928;SHT31;58587;53.034;18.576;2023-01-28T18:13:44;-0.80;73.70
70928;SHT31;58587;53.034;18.576;2023-01-28T18:16:12;-0.77;74.33
70928;SHT31;58587;53.034;18.576;2023-01-28T18:18:39;-0.77;74.22
70928;SHT31;58587;53.034;18.576;2023-01-28T18:21:06;-0.83;73.85
70928;SHT31;58587;53.034;18.576;2023-01-28T18:23:32;-0.81;74.48
70928;SHT31;58587;53.034;18.576;2023-01-28T18:26:00;-0.80;74.53
70928;SHT31;58587;53.034;18.576;2023-01-28T18:28:26;-0.84;74.42
70928;SHT31;58587;53.034;18.576;2023-01-28T18:30:52;-0.80;74.79
70928;SHT31;58587;53.034;18.576;2023-01-28T18:33:18;-0.85;75.06
70928;SHT31;58587;53.034;18.576;2023-01-28T18:35:45;-0.85;74.88
70928;SHT31;58587;53.034;18.576;2023-01-28T18:38:10;-0.81;75.35
70928;SHT31;58587;53.034;18.576;2023-01-28T18:40:36;-0.83;75.40
70928;SHT31;58587;53.034;18.576;2023-01-28T18:43:02;-0.83;75.19
70928;SHT31;58587;53.034;18.576;2023-01-28T18:45:27;-0.83;75.46
70928;SHT31;58587;53.034;18.576;2023-01-28T18:47:53;-0.85;75.58
70928;SHT31;58587;53.034;18.576;2023-01-28T18:50:18;-0.83;76.01
70928;SHT31;58587;53.034;18.576;2023-01-28T18:52:44;-0.88;75.75
70928;SHT31;58587;53.034;18.576;2023-01-28T18:55:09;-0.88;76.39
70928;SHT31;58587;53.034;18.576;2023-01-28T18:57:35;-0.88;76.13
70928;SHT31;58587;53.034;18.576;2023-01-28T19:00:00;-0.85;76.49
70928;SHT31;58587;53.034;18.576;2023-01-28T19:02:25;-0.84;76.73
70928;SHT31;58587;53.034;18.576;2023-01-28T19:04:51;-0.83;76.89
70928;SHT31;58587;53.034;18.576;2023-01-28T19:07:16;-0.87;76.77
70928;SHT31;58587;53.034;18.576;2023-01-28T19:09:41;-0.91;77.14
70928;SHT31;58587;53.034;18.576;2023-01-28T19:12:07;-0.80;77.70
70928;SHT31;58587;53.034;18.576;2023-01-28T19:14:32;-0.78;77.71
70928;SHT31;58587;53.034;18.576;2023-01-28T19:16:58;-0.83;77.76
70928;SHT31;58587;53.034;18.576;2023-01-28T19:19:23;-0.84;77.78
70928;SHT31;58587;53.034;18.576;2023-01-28T19:21:49;-0.87;78.09
70928;SHT31;58587;53.034;18.576;2023-01-28T19:24:14;-0.88;78.51
70928;SHT31;58587;53.034;18.576;2023-01-28T19:26:40;-0.85;78.69
70928;SHT31;58587;53.034;18.576;2023-01-28T19:29:07;-0.85;78.59
70928;SHT31;58587;53.034;18.576;2023-01-28T19:31:34;-0.81;78.84
70928;SHT31;58587;53.034;18.576;2023-01-28T19:33:59;-0.87;78.89
70928;SHT31;58587;53.034;18.576;2023-01-28T19:36:28;-0.84;79.19
70928;SHT31;58587;53.034;18.576;2023-01-28T19:38:57;-0.87;79.32
70928;SHT31;58587;53.034;18.576;2023-01-28T19:41:23;-0.83;79.39
70928;SHT31;58587;53.034;18.576;2023-01-28T19:43:49;-0.81;79.17
70928;SHT31;58587;53.034;18.576;2023-01-28T19:46:15;-0.80;79.35
70928;SHT31;58587;53.034;18.576;2023-01-28T19:48:41;-0.84;79.15
70928;SHT31;58587;53.034;18.576;2023-01-28T19:51:07;-0.85;79.37
70928;SHT31;58587;53.034;18.576;2023-01-28T19:53:34;-0.85;79.64
70928;SHT31;58587;53.034;18.576;2023-01-28T19:56:01;-0.87;79.71
70928;SHT31;58587;53.034;18.576;2023-01-28T19:58:27;-0.87;79.69
70928;SHT31;58587;53.034;18.576;2023-01-28T20:00:53;-0.88;80.06
70928;SHT31;58587;53.034;18.576;2023-01-28T20:03:18;-0.87;79.91
70928;SHT31;58587;53.034;18.576;2023-01-28T20:05:43;-0.84;80.18
70928;SHT31;58587;53.034;18.576;2023-01-28T20:08:09;-0.84;79.93
70928;SHT31;58587;53.034;18.576;2023-01-28T20:10:34;-0.84;80.15
70928;SHT31;58587;53.034;18.576;2023-01-28T20:13:00;-0.85;80.16
70928;SHT31;58587;53.034;18.576;2023-01-28T20:15:25;-0.91;80.29
70928;SHT31;58587;53.034;18.576;2023-01-28T20:17:50;-0.87;80.38
70928;SHT31;58587;53.034;18.576;2023-01-28T20:20:16;-0.85;80.47
70928;SHT31;58587;53.034;18.576;2023-01-28T20:22:41;-0.84;80.34
70928;SHT31;58587;53.034;18.576;2023-01-28T20:25:07;-0.89;80.37
70928;SHT31;58587;53.034;18.576;2023-01-28T20:27:33;-0.83;80.48
70928;SHT31;58587;53.034;18.576;2023-01-28T20:29:58;-0.87;80.68
70928;SHT31;58587;53.034;18.576;2023-01-28T20:32:23;-0.91;80.55
70928;SHT31;58587;53.034;18.576;2023-01-28T20:34:50;-0.87;80.81
70928;SHT31;58587;53.034;18.576;2023-01-28T20:37:15;-0.87;80.84
70928;SHT31;58587;53.034;18.576;2023-01-28T20:39:41;-0.89;80.71
70928;SHT31;58587;53.034;18.576;2023-01-28T20:42:06;-0.87;80.97
70928;SHT31;58587;53.034;18.576;2023-01-28T20:44:34;-0.87;80.93
70928;SHT31;58587;53.034;18.576;2023-01-28T20:47:00;-0.88;80.63
70928;SHT31;58587;53.034;18.576;2023-01-28T20:49:26;-0.85;80.78
70928;SHT31;58587;53.034;18.576;2023-01-28T20:51:51;-0.84;80.78
70928;SHT31;58587;53.034;18.576;2023-01-28T20:54:17;-0.77;80.92
70928;SHT31;58587;53.034;18.576;2023-01-28T20:56:43;-0.81;80.91
70928;SHT31;58587;53.034;18.576;2023-01-28T20:59:09;-0.83;80.96
70928;SHT31;58587;53.034;18.576;2023-01-28T21:01:35;-0.84;81.14
70928;SHT31;58587;53.034;18.576;2023-01-28T21:04:03;-0.83;81.13
70928;SHT31;58587;53.034;18.576;2023-01-28T21:06:29;-0.77;81.27
70928;SHT31;58587;53.034;18.576;2023-01-28T21:08:54;-0.84;81.17
70928;SHT31;58587;53.034;18.576;2023-01-28T21:11:22;-0.83;81.20
70928;SHT31;58587;53.034;18.576;2023-01-28T21:13:47;-0.78;81.34
70928;SHT31;58587;53.034;18.576;2023-01-28T21:16:13;-0.81;81.23
70928;SHT31;58587;53.034;18.576;2023-01-28T21:18:38;-0.83;81.33
70928;SHT31;58587;53.034;18.576;2023-01-28T21:21:05;-0.85;81.53
70928;SHT31;58587;53.034;18.576;2023-01-28T21:23:31;-0.87;81.58
70928;SHT31;58587;53.034;18.576;2023-01-28T21:26:00;-0.85;81.60
70928;SHT31;58587;53.034;18.576;2023-01-28T21:28:26;-0.78;81.54
70928;SHT31;58587;53.034;18.576;2023-01-28T21:30:52;-0.80;81.94
70928;SHT31;58587;53.034;18.576;2023-01-28T21:33:17;-0.78;81.99
70928;SHT31;58587;53.034;18.576;2023-01-28T21:35:43;-0.80;81.86
70928;SHT31;58587;53.034;18.576;2023-01-28T21:38:09;-0.74;82.06
70928;SHT31;58587;53.034;18.576;2023-01-28T21:40:35;-0.78;81.84
70928;SHT31;58587;53.034;18.576;2023-01-28T21:43:01;-0.75;81.89
70928;SHT31;58587;53.034;18.576;2023-01-28T21:45:26;-0.74;81.97
70928;SHT31;58587;53.034;18.576;2023-01-28T21:47:52;-0.71;81.99
70928;SHT31;58587;53.034;18.576;2023-01-28T21:50:18;-0.71;82.09
70928;SHT31;58587;53.034;18.576;2023-01-28T21:52:47;-0.71;82.09
70928;SHT31;58587;53.034;18.576;2023-01-28T21:55:12;-0.71;82.07
70928;SHT31;58587;53.034;18.576;2023-01-28T21:57:38;-0.65;82.14
70928;SHT31;58587;53.034;18.576;2023-01-28T22:00:03;-0.64;82.13
70928;SHT31;58587;53.034;18.576;2023-01-28T22:02:29;-0.67;82.01
70928;SHT31;58587;53.034;18.576;2023-01-28T22:04:54;-0.65;82.23
70928;SHT31;58587;53.034;18.576;2023-01-28T22:07:19;-0.65;82.49
70928;SHT31;58587;53.034;18.576;2023-01-28T22:09:46;-0.63;82.39
70928;SHT31;58587;53.034;18.576;2023-01-28T22:12:13;-0.64;82.30
70928;SHT31;58587;53.034;18.576;2023-01-28T22:14:40;-0.67;82.22
70928;SHT31;58587;53.034;18.576;2023-01-28T22:17:06;-0.70;82.51
70928;SHT31;58587;53.034;18.576;2023-01-28T22:19:33;-0.68;82.68
70928;SHT31;58587;53.034;18.576;2023-01-28T22:21:58;-0.67;82.48
70928;SHT31;58587;53.034;18.576;2023-01-28T22:24:24;-0.64;82.61
70928;SHT31;58587;53.034;18.576;2023-01-28T22:26:50;-0.65;82.59
70928;SHT31;58587;53.034;18.576;2023-01-28T22:29:17;-0.61;82.50
70928;SHT31;58587;53.034;18.576;2023-01-28T22:31:47;-0.58;82.59
70928;SHT31;58587;53.034;18.576;2023-01-28T22:34:12;-0.64;82.53
70928;SHT31;58587;53.034;18.576;2023-01-28T22:36:38;-0.64;82.68
70928;SHT31;58587;53.034;18.576;2023-01-28T22:39:05;-0.63;82.77
70928;SHT31;58587;53.034;18.576;2023-01-28T22:41:31;-0.64;82.94
70928;SHT31;58587;53.034;18.576;2023-01-28T22:43:57;-0.67;82.78
70928;SHT31;58587;53.034;18.576;2023-01-28T22:46:25;-0.63;82.97
70928;SHT31;58587;53.034;18.576;2023-01-28T22:48:51;-0.67;82.84
70928;SHT31;58587;53.034;18.576;2023-01-28T22:51:25;-0.68;82.81
70928;SHT31;58587;53.034;18.576;2023-01-28T22:53:51;-0.70;82.92
70928;SHT31;58587;53.034;18.576;2023-01-28T22:56:18;-0.67;82.96
70928;SHT31;58587;53.034;18.576;2023-01-28T22:58:44;-0.67;82.94
70928;SHT31;58587;53.034;18.576;2023-01-28T23:01:10;-0.70;82.91
70928;SHT31;58587;53.034;18.576;2023-01-28T23:03:45;-0.67;82.86
70928;SHT31;58587;53.034;18.576;2023-01-28T23:06:12;-0.67;83.15
70928;SHT31;58587;53.034;18.576;2023-01-28T23:08:37;-0.70;83.13
70928;SHT31;58587;53.034;18.576;2023-01-28T23:11:03;-0.71;82.88
70928;SHT31;58587;53.034;18.576;2023-01-28T23:13:29;-0.70;83.04
70928;SHT31;58587;53.034;18.576;2023-01-28T23:16:17;-0.78;83.29
70928;SHT31;58587;53.034;18.576;2023-01-28T23:19:02;-0.73;83.10
70928;SHT31;58587;53.034;18.576;2023-01-28T23:21:46;-0.80;83.28
70928;SHT31;58587;53.034;18.576;2023-01-28T23:24:30;-0.81;83.24
70928;SHT31;58587;53.034;18.576;2023-01-28T23:26:58;-0.77;83.47
70928;SHT31;58587;53.034;18.576;2023-01-28T23:29:25;-0.70;83.36
70928;SHT31;58587;53.034;18.576;2023-01-28T23:32:02;-0.71;83.39
70928;SHT31;58587;53.034;18.576;2023-01-28T23:34:31;-0.74;83.37
70928;SHT31;58587;53.034;18.576;2023-01-28T23:36:59;-0.80;83.29
70928;SHT31;58587;53.034;18.576;2023-01-28T23:39:24;-0.80;83.45
70928;SHT31;58587;53.034;18.576;2023-01-28T23:41:49;-0.78;83.32
70928;SHT31;58587;53.034;18.576;2023-01-28T23:44:14;-0.83;83.39
70928;SHT31;58587;53.034;18.576;2023-01-28T23:46:40;-0.88;83.51
70928;SHT31;58587;53.034;18.576;2023-01-28T23:49:05;-0.87;83.67
70928;SHT31;58587;53.034;18.576;2023-01-28T23:51:30;-0.88;83.67
70928;SHT31;58587;53.034;18.576;2023-01-28T23:53:56;-0.84;83.82
70928;SHT31;58587;53.034;18.576;2023-01-28T23:56:21;-0.83;83.80
70928;SHT31;58587;53.034;18.576;2023-01-28T23:58:47;-0.81;83.89
